createdAt,value
2023-04-18T00:02:29.531Z,42.90
2023-04-18T00:05:19.883Z,38.83
2023-04-18T00:08:07.280Z,40.33
2023-04-18T00:10:54.725Z,42.57
2023-04-18T00:13:42.130Z,38.13
2023-04-18T00:16:29.478Z,37.03
2023-04-18T00:19:18.259Z,39.30
2023-04-18T00:22:07.084Z,37.90
2023-04-18T00:24:54.602Z,40.90
2023-04-18T00:27:42.048Z,40.60
2023-04-18T00:30:29.444Z,40.70
2023-04-18T00:33:16.855Z,40.27
2023-04-18T00:36:04.462Z,40.03
2023-04-18T00:38:51.804Z,35.77
2023-04-18T00:41:39.145Z,37.70
2023-04-18T00:44:26.491Z,37.70
2023-04-18T00:47:13.868Z,41.23
2023-04-18T00:50:02.360Z,40.13
2023-04-18T00:52:49.791Z,37.63
2023-04-18T00:55:38.438Z,37.93
2023-04-18T00:58:26.532Z,40.67
2023-04-18T01:01:13.959Z,38.60
2023-04-18T01:04:02.050Z,39.40
2023-04-18T01:06:49.579Z,38.03
2023-04-18T01:09:37.289Z,36.13
2023-04-18T01:12:24.628Z,33.37
2023-04-18T01:15:12.007Z,35.37
2023-04-18T01:18:00.505Z,36.20
2023-04-18T01:20:48.787Z,34.00
2023-04-18T01:23:36.232Z,38.03
2023-04-18T01:26:23.718Z,36.00
2023-04-18T01:29:11.189Z,33.33
2023-04-18T01:31:58.603Z,36.97
2023-04-18T01:34:46.088Z,38.17
2023-04-18T01:37:33.438Z,36.50
2023-04-18T01:40:20.910Z,34.20
2023-04-18T01:43:08.284Z,35.70
2023-04-18T01:45:55.651Z,34.30
2023-04-18T01:48:43.296Z,34.27
2023-04-18T01:51:31.269Z,33.40
2023-04-18T01:54:18.807Z,33.00
2023-04-18T01:57:06.159Z,36.97
2023-04-18T01:59:53.492Z,35.50
2023-04-18T02:02:41.106Z,34.97
2023-04-18T02:05:28.547Z,35.93
2023-04-18T02:08:15.923Z,36.73
2023-04-18T02:11:03.576Z,35.03
2023-04-18T02:13:50.944Z,33.63
2023-04-18T02:16:38.902Z,38.63
2023-04-18T02:19:26.375Z,32.10
2023-04-18T02:22:13.755Z,36.73
2023-04-18T02:25:01.552Z,33.37
2023-04-18T02:27:48.934Z,31.63
2023-04-18T02:30:36.291Z,33.13
2023-04-18T02:33:23.649Z,32.77
2023-04-18T02:36:11.171Z,32.93
2023-04-18T02:38:58.538Z,29.80
2023-04-18T02:41:45.926Z,27.83
2023-04-18T02:44:33.253Z,31.80
2023-04-18T02:47:21.513Z,24.20
2023-04-18T02:50:09.118Z,26.10
2023-04-18T02:52:56.583Z,24.30
2023-04-18T02:55:44.000Z,24.80
2023-04-18T02:58:31.347Z,21.23
2023-04-18T03:01:18.930Z,19.77
2023-04-18T03:04:06.330Z,23.20
2023-04-18T03:06:53.692Z,22.53
2023-04-18T03:09:41.078Z,22.33
2023-04-18T03:12:28.446Z,22.70
2023-04-18T03:15:15.798Z,23.10
2023-04-18T03:18:03.187Z,22.20
2023-04-18T03:20:50.589Z,21.17
2023-04-18T03:23:38.274Z,18.17
2023-04-18T03:26:26.665Z,17.70
2023-04-18T03:29:14.088Z,19.70
2023-04-18T03:32:01.705Z,17.50
2023-04-18T03:34:49.741Z,18.53
2023-04-18T03:37:37.113Z,17.33
2023-04-18T03:40:24.606Z,16.07
2023-04-18T03:43:12.081Z,17.30
2023-04-18T03:45:59.544Z,15.13
2023-04-18T03:48:46.984Z,15.07
2023-04-18T03:51:35.846Z,17.30
2023-04-18T03:54:23.252Z,14.37
2023-04-18T03:57:10.687Z,20.23
2023-04-18T03:59:58.101Z,15.07
2023-04-18T04:02:45.547Z,15.93
2023-04-18T04:05:33.070Z,16.33
2023-04-18T04:08:20.412Z,16.53
2023-04-18T04:11:07.933Z,15.03
2023-04-18T04:13:55.361Z,15.67
2023-04-18T04:16:43.383Z,14.20
2023-04-18T04:19:30.772Z,15.37
2023-04-18T04:22:18.103Z,15.93
2023-04-18T04:25:06.334Z,17.03
2023-04-18T04:27:54.408Z,19.53
2023-04-18T04:30:41.818Z,13.57
2023-04-18T04:33:29.283Z,14.20
2023-04-18T04:36:18.853Z,16.20
2023-04-18T04:39:06.586Z,13.57
2023-04-18T04:41:53.937Z,12.97
2023-04-18T04:44:42.729Z,15.53
2023-04-18T04:47:30.333Z,11.73
2023-04-18T04:50:20.106Z,13.83
2023-04-18T04:53:07.508Z,14.67
2023-04-18T04:55:54.919Z,11.10
2023-04-18T04:58:42.322Z,12.73
2023-04-18T05:01:29.754Z,17.30
2023-04-18T05:04:17.483Z,12.23
2023-04-18T05:07:05.306Z,11.57
2023-04-18T05:09:53.421Z,15.97
2023-04-18T05:12:40.798Z,12.43
2023-04-18T05:15:28.166Z,15.77
2023-04-18T05:18:15.509Z,14.90
2023-04-18T05:21:02.890Z,14.33
2023-04-18T05:23:50.553Z,15.37
2023-04-18T05:26:38.135Z,14.03
2023-04-18T05:29:25.868Z,15.23
2023-04-18T05:32:13.227Z,15.87
2023-04-18T05:35:00.569Z,11.77
2023-04-18T05:37:48.036Z,13.17
2023-04-18T05:40:35.518Z,12.83
2023-04-18T05:43:22.962Z,15.53
2023-04-18T05:46:10.678Z,13.80
2023-04-18T05:48:58.101Z,14.70
2023-04-18T05:51:46.137Z,13.83
2023-04-18T05:54:33.569Z,15.80
2023-04-18T05:57:21.009Z,15.07
2023-04-18T06:00:11.609Z,16.23
2023-04-18T06:02:59.159Z,15.97
2023-04-18T06:05:46.792Z,15.50
2023-04-18T06:08:34.221Z,16.37
2023-04-18T06:11:21.610Z,12.53
2023-04-18T06:14:08.978Z,15.57
2023-04-18T06:16:56.380Z,16.27
2023-04-18T06:19:43.762Z,13.73
2023-04-18T06:22:31.141Z,15.10
2023-04-18T06:25:18.550Z,14.87
2023-04-18T06:28:06.101Z,15.23
2023-04-18T06:30:53.488Z,13.47
2023-04-18T06:33:40.868Z,16.10
2023-04-18T06:36:28.282Z,14.93
2023-04-18T06:39:15.613Z,13.60
2023-04-18T06:42:04.704Z,15.57
2023-04-18T06:44:52.160Z,13.00
2023-04-18T06:47:40.475Z,14.83
2023-04-18T06:50:27.911Z,13.63
2023-04-18T06:53:15.496Z,12.07
2023-04-18T06:56:02.997Z,12.20
2023-04-18T06:58:52.765Z,11.57
2023-04-18T07:01:43.662Z,13.67
2023-04-18T07:04:31.079Z,14.60
2023-04-18T07:07:18.558Z,9.93
2023-04-18T07:10:06.784Z,18.27
2023-04-18T07:12:54.184Z,14.03
2023-04-18T07:15:41.763Z,11.10
2023-04-18T07:18:37.222Z,13.50
2023-04-18T07:21:26.346Z,12.43
2023-04-18T07:24:14.140Z,12.67
2023-04-18T07:27:03.219Z,12.00
2023-04-18T07:29:50.664Z,13.20
2023-04-18T07:32:38.138Z,13.87
2023-04-18T07:35:25.667Z,14.13
2023-04-18T07:38:13.390Z,16.90
2023-04-18T07:41:01.957Z,13.00
2023-04-18T07:43:49.324Z,12.37
2023-04-18T07:46:36.793Z,15.67
2023-04-18T07:49:24.161Z,12.83
2023-04-18T07:52:11.623Z,14.10
2023-04-18T07:54:58.975Z,11.30
2023-04-18T07:57:50.287Z,13.70
2023-04-18T08:00:39.207Z,12.90
2023-04-18T08:03:27.584Z,16.57
2023-04-18T08:06:16.690Z,17.97
2023-04-18T08:09:05.632Z,13.90
2023-04-18T08:11:55.137Z,19.77
2023-04-18T08:14:42.532Z,15.77
2023-04-18T08:17:30.949Z,14.43
2023-04-18T08:20:18.394Z,15.83
2023-04-18T08:23:09.512Z,13.50
2023-04-18T08:25:58.724Z,13.80
2023-04-18T08:28:46.666Z,17.33
2023-04-18T08:31:34.208Z,14.03
2023-04-18T08:34:21.625Z,12.23
2023-04-18T08:37:09.015Z,12.97
2023-04-18T08:39:56.562Z,14.33
2023-04-18T08:42:47.222Z,12.37
2023-04-18T08:45:35.199Z,16.07
2023-04-18T08:48:22.982Z,11.90
2023-04-18T08:51:10.404Z,12.27
2023-04-18T08:54:02.633Z,12.77
2023-04-18T08:57:06.417Z,15.90
2023-04-18T08:59:54.299Z,11.43
2023-04-18T09:02:42.752Z,14.17
2023-04-18T09:05:30.547Z,14.10
2023-04-18T09:08:24.694Z,12.97
2023-04-18T09:11:25.863Z,12.97
2023-04-18T09:14:24.496Z,12.60
2023-04-18T09:17:31.903Z,12.13
2023-04-18T09:20:35.927Z,12.40
2023-04-18T09:23:24.508Z,12.37
2023-04-18T09:26:11.813Z,11.87
2023-04-18T09:28:59.156Z,12.90
2023-04-18T09:31:57.431Z,10.17
2023-04-18T09:34:44.846Z,11.63
2023-04-18T09:37:32.246Z,11.00
2023-04-18T09:40:22.219Z,12.07
2023-04-18T09:43:18.378Z,12.77
2023-04-18T09:46:06.066Z,13.80
2023-04-18T09:48:53.502Z,11.83
2023-04-18T09:51:42.074Z,12.60
2023-04-18T09:54:31.756Z,13.50
2023-04-18T09:57:19.352Z,13.40
2023-04-18T10:00:13.698Z,17.03
2023-04-18T10:03:08.095Z,13.73
2023-04-18T10:05:57.786Z,15.73
2023-04-18T10:08:45.937Z,12.47
2023-04-18T10:11:33.596Z,12.10
2023-04-18T10:14:21.593Z,17.87
2023-04-18T10:17:09.253Z,13.47
2023-04-18T10:20:12.639Z,13.50
2023-04-18T10:23:00.480Z,13.43
2023-04-18T10:25:48.994Z,9.87
2023-04-18T10:28:59.397Z,13.63
2023-04-18T10:31:47.765Z,14.90
2023-04-18T10:34:37.708Z,12.97
2023-04-18T10:37:26.800Z,11.60
2023-04-18T10:40:15.302Z,12.60
2023-04-18T10:43:02.815Z,13.17
2023-04-18T10:46:23.796Z,11.03
2023-04-18T10:49:22.903Z,10.83
2023-04-18T10:52:13.406Z,11.57
2023-04-18T10:55:27.125Z,15.23
2023-04-18T10:58:15.958Z,15.70
2023-04-18T11:01:04.013Z,14.37
2023-04-18T11:03:51.886Z,12.13
2023-04-18T11:07:00.181Z,10.97
2023-04-18T11:09:54.856Z,13.03
2023-04-18T11:12:42.204Z,13.70
2023-04-18T11:15:31.012Z,15.23
2023-04-18T11:18:18.580Z,14.50
2023-04-18T11:21:06.042Z,12.40
2023-04-18T11:23:53.536Z,10.17
2023-04-18T11:26:41.267Z,13.97
2023-04-18T11:29:28.692Z,12.83
2023-04-18T11:32:16.416Z,13.13
2023-04-18T11:35:04.010Z,11.37
2023-04-18T11:37:51.965Z,19.47
2023-04-18T11:40:39.394Z,16.67
2023-04-18T11:43:26.824Z,10.87
2023-04-18T11:46:14.377Z,9.73
2023-04-18T11:49:01.873Z,10.40
2023-04-18T11:51:49.200Z,8.60
2023-04-18T11:54:38.598Z,8.83
2023-04-18T11:57:27.261Z,12.40
2023-04-18T12:00:15.215Z,8.83
2023-04-18T12:03:07.877Z,7.23
2023-04-18T12:06:02.543Z,11.33
2023-04-18T12:08:49.982Z,9.10
2023-04-18T12:11:37.334Z,10.40
2023-04-18T12:14:24.710Z,7.00
2023-04-18T12:17:13.494Z,9.90
2023-04-18T12:20:05.582Z,9.17
2023-04-18T12:22:54.884Z,11.30
2023-04-18T12:25:42.275Z,10.63
2023-04-18T12:28:29.768Z,9.10
2023-04-18T12:31:17.240Z,10.60
2023-04-18T12:34:04.595Z,8.40
2023-04-18T12:36:52.291Z,9.33
2023-04-18T12:39:39.644Z,9.23
2023-04-18T12:42:27.041Z,9.37
2023-04-18T12:45:14.927Z,8.33
2023-04-18T12:48:02.675Z,8.57
2023-04-18T12:50:50.067Z,9.60
2023-04-18T12:53:37.439Z,11.00
2023-04-18T12:56:24.765Z,8.70
2023-04-18T12:59:12.300Z,7.93
2023-04-18T13:01:59.806Z,9.13
2023-04-18T13:04:47.267Z,12.43
2023-04-18T13:07:35.131Z,8.77
2023-04-18T13:10:24.678Z,7.93
2023-04-18T13:13:12.082Z,11.63
2023-04-18T13:15:59.494Z,11.50
2023-04-18T13:18:46.891Z,7.67
2023-04-18T13:21:34.225Z,9.40
2023-04-18T13:24:21.681Z,10.20
2023-04-18T13:27:11.819Z,9.90
2023-04-18T13:29:59.249Z,8.90
2023-04-18T13:32:47.001Z,10.77
2023-04-18T13:35:34.407Z,8.37
2023-04-18T13:38:21.783Z,10.73
2023-04-18T13:41:12.748Z,8.77
2023-04-18T13:44:02.039Z,10.70
2023-04-18T13:46:49.385Z,9.07
2023-04-18T13:49:37.002Z,13.07
2023-04-18T13:52:24.696Z,9.67
2023-04-18T13:55:12.379Z,10.03
2023-04-18T13:57:59.902Z,10.93
2023-04-18T14:00:47.251Z,8.50
2023-04-18T14:03:36.900Z,7.83
2023-04-18T14:06:27.602Z,11.27
2023-04-18T14:09:16.296Z,8.27
2023-04-18T14:12:03.700Z,10.40
2023-04-18T14:14:51.073Z,11.93
2023-04-18T14:17:38.570Z,9.60
2023-04-18T14:20:26.529Z,6.70
2023-04-18T14:23:13.865Z,9.73
2023-04-18T14:26:01.971Z,7.53
2023-04-18T14:28:49.449Z,8.57
2023-04-18T14:31:36.954Z,10.30
2023-04-18T14:34:24.375Z,10.23
2023-04-18T14:37:11.776Z,10.17
2023-04-18T14:39:59.208Z,12.07
2023-04-18T14:42:46.676Z,8.93
2023-04-18T14:45:34.665Z,9.60
2023-04-18T14:48:22.160Z,8.03
2023-04-18T14:51:09.659Z,6.73
2023-04-18T14:53:56.973Z,9.37
2023-04-18T14:56:44.314Z,10.70
2023-04-18T14:59:32.067Z,6.97
2023-04-18T15:02:19.495Z,9.57
2023-04-18T15:05:07.904Z,9.47
2023-04-18T15:07:55.975Z,8.20
2023-04-18T15:10:44.455Z,8.90
2023-04-18T15:13:31.767Z,10.67
2023-04-18T15:16:19.337Z,8.13
2023-04-18T15:19:06.923Z,9.07
2023-04-18T15:21:54.293Z,8.60
2023-04-18T15:24:41.922Z,9.27
2023-04-18T15:27:29.857Z,8.57
2023-04-18T15:30:17.298Z,7.03
2023-04-18T15:33:04.765Z,7.83
2023-04-18T15:35:52.135Z,7.00
2023-04-18T15:38:39.923Z,9.77
2023-04-18T15:41:27.349Z,8.90
2023-04-18T15:44:14.829Z,8.50
2023-04-18T15:47:02.541Z,8.97
2023-04-18T15:49:49.869Z,10.10
2023-04-18T15:52:37.306Z,7.93
2023-04-18T15:55:24.660Z,7.60
2023-04-18T15:58:12.010Z,7.10
2023-04-18T16:00:59.352Z,10.13
2023-04-18T16:03:46.909Z,8.13
2023-04-18T16:06:34.361Z,9.07
2023-04-18T16:09:22.407Z,12.73
2023-04-18T16:12:09.759Z,7.77
2023-04-18T16:14:57.164Z,10.03
2023-04-18T16:17:44.540Z,6.60
2023-04-18T16:20:33.357Z,9.20
2023-04-18T16:23:20.726Z,10.73
2023-04-18T16:26:08.131Z,9.03
2023-04-18T16:28:55.506Z,12.53
2023-04-18T16:31:43.241Z,7.97
2023-04-18T16:34:30.994Z,7.93
2023-04-18T16:37:18.484Z,9.43
2023-04-18T16:40:08.459Z,8.23
2023-04-18T16:42:55.817Z,9.43
2023-04-18T16:45:43.184Z,15.30
2023-04-18T16:48:30.646Z,8.33
2023-04-18T16:51:18.068Z,10.33
2023-04-18T16:54:06.040Z,9.93
2023-04-18T16:56:53.467Z,13.37
2023-04-18T16:59:41.807Z,9.83
2023-04-18T17:02:29.308Z,10.57
2023-04-18T17:05:17.397Z,9.03
2023-04-18T17:08:04.830Z,9.87
2023-04-18T17:10:52.917Z,7.27
2023-04-18T17:13:40.450Z,9.87
2023-04-18T17:16:27.803Z,8.83
2023-04-18T17:19:15.763Z,9.53
2023-04-18T17:22:03.213Z,10.90
2023-04-18T17:24:50.709Z,8.67
2023-04-18T17:27:39.900Z,9.47
2023-04-18T17:30:27.277Z,8.90
2023-04-18T17:33:14.615Z,7.23
2023-04-18T17:36:02.915Z,10.00
2023-04-18T17:38:51.726Z,10.90
2023-04-18T17:41:39.460Z,10.77
2023-04-18T17:44:26.827Z,8.33
2023-04-18T17:47:14.154Z,8.03
2023-04-18T17:50:02.035Z,9.70
2023-04-18T17:52:49.626Z,7.70
2023-04-18T17:55:36.951Z,6.60
2023-04-18T17:58:24.357Z,10.20
2023-04-18T18:01:15.525Z,9.90
2023-04-18T18:04:03.127Z,10.70
2023-04-18T18:06:54.392Z,12.17
2023-04-18T18:09:42.034Z,8.23
2023-04-18T18:12:29.416Z,7.50
2023-04-18T18:15:16.781Z,7.83
2023-04-18T18:18:04.222Z,11.93
2023-04-18T18:20:51.879Z,10.80
2023-04-18T18:23:39.319Z,10.17
2023-04-18T18:26:26.710Z,10.60
2023-04-18T18:29:14.316Z,13.43
2023-04-18T18:32:02.170Z,12.77
2023-04-18T18:34:49.571Z,8.73
2023-04-18T18:37:36.969Z,9.83
2023-04-18T18:40:24.446Z,9.83
2023-04-18T18:43:11.812Z,9.20
2023-04-18T18:45:59.191Z,9.70
2023-04-18T18:48:46.610Z,9.97
2023-04-18T18:51:34.030Z,9.63
2023-04-18T18:54:21.373Z,9.97
2023-04-18T18:57:08.827Z,11.00
2023-04-18T18:59:56.229Z,9.43
2023-04-18T19:02:43.741Z,8.27
2023-04-18T19:05:31.207Z,11.63
2023-04-18T19:08:18.537Z,10.30
2023-04-18T19:11:05.900Z,13.03
2023-04-18T19:13:53.400Z,12.13
2023-04-18T19:16:40.840Z,10.70
2023-04-18T19:19:28.295Z,11.53
2023-04-18T19:22:16.605Z,8.07
2023-04-18T19:25:04.006Z,9.13
2023-04-18T19:27:51.458Z,7.40
2023-04-18T19:30:38.873Z,8.53
2023-04-18T19:33:27.351Z,8.23
2023-04-18T19:36:15.215Z,7.70
2023-04-18T19:39:02.614Z,11.10
2023-04-18T19:41:49.974Z,8.40
2023-04-18T19:44:37.397Z,8.80
2023-04-18T19:47:24.737Z,11.87
2023-04-18T19:50:12.201Z,9.20
2023-04-18T19:52:59.585Z,11.43
2023-04-18T19:55:46.948Z,10.23
2023-04-18T19:58:39.657Z,10.70
2023-04-18T20:01:27.284Z,12.90
2023-04-18T20:04:14.851Z,11.23
2023-04-18T20:07:02.625Z,10.13
2023-04-18T20:09:49.961Z,13.00
2023-04-18T20:12:37.550Z,12.27
2023-04-18T20:15:24.924Z,7.90
2023-04-18T20:18:12.338Z,9.40
2023-04-18T20:20:59.665Z,10.47
2023-04-18T20:23:47.079Z,12.23
2023-04-18T20:26:34.403Z,13.27
2023-04-18T20:29:21.962Z,15.83
2023-04-18T20:32:09.315Z,14.37
2023-04-18T20:34:58.478Z,11.00
2023-04-18T20:37:46.078Z,9.63
2023-04-18T20:40:34.118Z,12.63
2023-04-18T20:43:21.482Z,11.00
2023-04-18T20:46:12.554Z,9.70
2023-04-18T20:48:59.912Z,9.57
2023-04-18T20:51:47.318Z,9.93
2023-04-18T20:54:34.808Z,12.70
2023-04-18T20:57:22.170Z,11.03
2023-04-18T21:00:10.413Z,11.33
2023-04-18T21:02:57.923Z,9.97
2023-04-18T21:05:45.505Z,11.93
2023-04-18T21:08:34.941Z,10.60
2023-04-18T21:11:22.339Z,12.13
2023-04-18T21:14:09.755Z,11.30
2023-04-18T21:16:58.088Z,15.57
2023-04-18T21:19:49.368Z,12.67
2023-04-18T21:22:36.721Z,10.00
2023-04-18T21:25:24.079Z,9.37
2023-04-18T21:28:11.468Z,9.17
2023-04-18T21:30:58.801Z,11.27
2023-04-18T21:33:46.178Z,11.00
2023-04-18T21:36:33.646Z,13.93
2023-04-18T21:39:21.033Z,11.63
2023-04-18T21:42:08.433Z,8.37
2023-04-18T21:44:55.776Z,10.17
2023-04-18T21:47:43.227Z,10.07
2023-04-18T21:50:30.644Z,8.33
2023-04-18T21:53:17.974Z,10.87
2023-04-18T21:56:05.582Z,12.40
2023-04-18T21:58:52.923Z,9.27
2023-04-18T22:01:40.368Z,10.67
2023-04-18T22:04:27.954Z,11.03
2023-04-18T22:07:18.766Z,11.37
2023-04-18T22:10:07.825Z,11.70
2023-04-18T22:12:55.795Z,10.37
2023-04-18T22:15:43.356Z,10.27
2023-04-18T22:18:33.284Z,11.13
2023-04-18T22:21:20.624Z,10.77
2023-04-18T22:24:08.672Z,11.13
2023-04-18T22:26:56.492Z,11.30
2023-04-18T22:29:43.848Z,10.00
2023-04-18T22:32:31.247Z,9.07
2023-04-18T22:35:18.686Z,8.27
2023-04-18T22:38:06.186Z,8.77
2023-04-18T22:40:53.589Z,9.83
2023-04-18T22:43:41.019Z,11.60
2023-04-18T22:46:28.554Z,11.27
2023-04-18T22:49:17.834Z,8.63
2023-04-18T22:52:06.099Z,12.60
2023-04-18T22:54:53.466Z,8.80
2023-04-18T22:57:40.856Z,7.63
2023-04-18T23:00:28.250Z,10.70
2023-04-18T23:03:15.690Z,12.10
2023-04-18T23:06:03.185Z,11.33
2023-04-18T23:08:50.565Z,10.23
2023-04-18T23:11:37.971Z,8.43
2023-04-18T23:14:25.380Z,10.70
2023-04-18T23:17:12.739Z,16.00
2023-04-18T23:20:00.142Z,9.20
2023-04-18T23:22:50.046Z,9.80
2023-04-18T23:25:37.623Z,7.70
2023-04-18T23:28:25.056Z,8.10
2023-04-18T23:31:12.519Z,7.07
2023-04-18T23:33:59.934Z,11.93
2023-04-18T23:36:47.401Z,8.37
2023-04-18T23:39:34.732Z,7.67
2023-04-18T23:42:22.100Z,7.27
2023-04-18T23:45:09.573Z,8.23
2023-04-18T23:47:57.207Z,10.17
2023-04-18T23:50:52.424Z,8.40
2023-04-18T23:53:39.790Z,8.50
2023-04-18T23:56:27.413Z,8.33
2023-04-18T23:59:14.780Z,5.83
